createdAt,value
2022-08-05T00:00:23.644Z,101299.28
2022-08-05T00:02:07.603Z,101294.06
2022-08-05T00:03:39.870Z,101301.38
2022-08-05T00:06:02.632Z,101313.09
2022-08-05T00:07:27.193Z,101325.66
2022-08-05T00:08:58.231Z,101321.13
2022-08-05T00:10:30.116Z,101320.47
2022-08-05T00:12:01.978Z,101321.41
2022-08-05T00:13:39.153Z,101318.03
2022-08-05T00:15:54.495Z,101316.22
2022-08-05T00:17:03.535Z,101314.44
2022-08-05T00:18:38.698Z,101306.56
2022-08-05T00:20:10.826Z,101302.19
2022-08-05T00:21:43.155Z,101305.72
2022-08-05T00:23:15.211Z,101297.88
2022-08-05T00:24:47.651Z,101303.19
2022-08-05T00:26:27.464Z,101308.56
2022-08-05T00:27:59.996Z,101296.22
2022-08-05T00:29:37.867Z,101299.66
2022-08-05T00:31:10.924Z,101295.41
2022-08-05T00:32:42.702Z,101294.47
2022-08-05T00:34:54.617Z,101294.63
2022-08-05T00:36:16.565Z,101301.66
2022-08-05T00:37:58.839Z,101299.94
2022-08-05T00:39:37.100Z,101304.31
2022-08-05T00:41:27.596Z,101302.66
2022-08-05T00:43:19.801Z,101295.53
2022-08-05T00:44:51.682Z,101294.81
2022-08-05T00:46:36.861Z,101302.66
2022-08-05T00:48:18.172Z,101298.19
2022-08-05T00:49:59.521Z,101300.00
2022-08-05T00:51:50.292Z,101295.69
2022-08-05T00:54:01.110Z,101308.97
2022-08-05T00:55:15.979Z,101308.91
2022-08-05T00:56:51.401Z,101303.66
2022-08-05T00:58:27.388Z,101293.00
2022-08-05T00:59:59.540Z,101304.44
2022-08-05T01:01:42.574Z,101301.00
2022-08-05T01:03:22.594Z,101303.72
2022-08-05T01:04:55.223Z,101300.06
2022-08-05T01:06:32.527Z,101296.47
2022-08-05T01:08:41.410Z,101303.47
2022-08-05T01:09:57.150Z,101305.25
2022-08-05T01:11:37.239Z,101306.06
2022-08-05T01:13:19.507Z,101301.66
2022-08-05T01:15:07.073Z,101294.81
2022-08-05T01:17:39.990Z,101290.50
2022-08-05T01:19:36.684Z,101288.63
2022-08-05T01:21:40.738Z,101284.31
2022-08-05T01:23:34.699Z,101280.72
2022-08-05T01:25:15.963Z,101286.03
2022-08-05T01:27:17.966Z,101294.00
2022-08-05T01:29:13.101Z,101302.00
2022-08-05T01:30:55.531Z,101315.22
2022-08-05T01:32:28.401Z,101316.16
2022-08-05T01:34:03.706Z,101321.41
2022-08-05T01:35:51.919Z,101332.06
2022-08-05T01:37:37.680Z,101350.47
2022-08-05T01:39:45.589Z,101360.19
2022-08-05T01:41:09.496Z,101369.94
2022-08-05T01:42:45.394Z,101375.16
2022-08-05T01:44:19.863Z,101381.19
2022-08-05T01:45:56.612Z,101392.66
2022-08-05T01:47:38.868Z,101397.16
2022-08-05T01:49:24.101Z,101407.19
2022-08-05T01:51:12.502Z,101414.97
2022-08-05T01:52:50.059Z,101410.59
2022-08-05T01:54:24.633Z,101421.22
2022-08-05T01:56:04.542Z,101415.91
2022-08-05T01:58:13.647Z,101419.44
2022-08-05T01:59:34.044Z,101404.47
2022-08-05T02:01:06.829Z,101392.91
2022-08-05T02:02:51.088Z,101384.00
2022-08-05T02:04:28.860Z,101384.78
2022-08-05T02:06:33.687Z,101397.28
2022-08-05T02:08:13.857Z,101394.88
2022-08-05T02:09:57.755Z,101395.88
2022-08-05T02:11:52.562Z,101425.34
2022-08-05T02:13:36.499Z,101421.25
2022-08-05T02:15:33.556Z,101411.63
2022-08-05T02:17:17.011Z,101380.72
2022-08-05T02:19:21.127Z,101361.47
2022-08-05T02:20:58.965Z,101339.47
2022-08-05T02:22:33.765Z,101336.25
2022-08-05T02:24:08.803Z,101331.84
2022-08-05T02:25:50.182Z,101325.81
2022-08-05T02:27:29.837Z,101320.56
2022-08-05T02:29:26.151Z,101310.97
2022-08-05T02:31:23.882Z,101298.69
2022-08-05T02:32:56.291Z,101298.81
2022-08-05T02:34:32.248Z,101307.81
2022-08-05T02:36:05.610Z,101318.66
2022-08-05T02:37:43.075Z,101318.78
2022-08-05T02:39:21.691Z,101306.38
2022-08-05T02:40:54.532Z,101292.34
2022-08-05T02:42:31.952Z,101286.22
2022-08-05T02:44:12.110Z,101305.88
2022-08-05T02:45:52.109Z,101315.69
2022-08-05T02:47:25.944Z,101315.63
2022-08-05T02:49:18.341Z,101302.47
2022-08-05T02:50:55.387Z,101303.47
2022-08-05T02:52:30.482Z,101311.38
2022-08-05T02:54:03.465Z,101329.97
2022-08-05T02:55:54.540Z,101348.69
2022-08-05T02:58:12.160Z,101367.28
2022-08-05T02:59:20.477Z,101354.81
2022-08-05T03:01:02.880Z,101322.13
2022-08-05T03:02:40.061Z,101284.06
2022-08-05T03:04:14.546Z,101291.06
2022-08-05T03:06:53.819Z,101316.81
2022-08-05T03:08:07.185Z,101330.91
2022-08-05T03:09:38.231Z,101332.69
2022-08-05T03:11:54.998Z,101341.59
2022-08-05T03:13:16.910Z,101350.47
2022-08-05T03:14:48.867Z,101346.94
2022-08-05T03:16:21.742Z,101345.09
2022-08-05T03:17:57.585Z,101353.13
2022-08-05T03:19:34.231Z,101354.00
2022-08-05T03:21:08.235Z,101351.28
2022-08-05T03:22:46.887Z,101357.47
2022-08-05T03:24:29.522Z,101342.28
2022-08-05T03:26:30.368Z,101340.53
2022-08-05T03:27:59.804Z,101343.13
2022-08-05T03:29:44.471Z,101352.91
2022-08-05T03:31:41.493Z,101355.50
2022-08-05T03:33:10.001Z,101348.31
2022-08-05T03:34:50.366Z,101352.91
2022-08-05T03:36:30.221Z,101350.28
2022-08-05T03:38:10.126Z,101350.28
2022-08-05T03:40:01.421Z,101343.00
2022-08-05T03:41:45.166Z,101344.75
2022-08-05T03:44:09.236Z,101341.22
2022-08-05T03:45:22.196Z,101331.59
2022-08-05T03:46:55.716Z,101317.38
2022-08-05T03:48:29.324Z,101320.84
2022-08-05T03:50:01.297Z,101321.88
2022-08-05T03:52:36.872Z,101329.84
2022-08-05T03:55:54.145Z,101333.31
2022-08-05T03:56:30.653Z,101321.75
2022-08-05T03:58:10.885Z,101315.63
2022-08-05T03:59:46.967Z,101335.16
2022-08-05T04:01:32.328Z,101333.38
2022-08-05T04:03:05.922Z,101317.50
2022-08-05T04:04:38.285Z,101311.38
2022-08-05T04:06:10.931Z,101324.78
2022-08-05T04:07:58.343Z,101311.56
2022-08-05T04:09:31.113Z,101314.28
2022-08-05T04:11:09.988Z,101316.19
2022-08-05T04:12:45.070Z,101309.88
2022-08-05T04:14:18.172Z,101307.41
2022-08-05T04:16:02.830Z,101303.16
2022-08-05T04:17:55.898Z,101311.06
2022-08-05T04:19:28.958Z,101312.78
2022-08-05T04:21:01.081Z,101309.28
2022-08-05T04:22:32.966Z,101315.44
2022-08-05T04:24:08.911Z,101314.63
2022-08-05T04:26:00.589Z,101307.72
2022-08-05T04:27:42.206Z,101316.44
2022-08-05T04:29:27.359Z,101318.97
2022-08-05T04:31:01.047Z,101321.69
2022-08-05T04:32:33.557Z,101331.38
2022-08-05T04:34:33.117Z,101333.97
2022-08-05T04:36:11.095Z,101349.91
2022-08-05T04:38:01.969Z,101354.41
2022-08-05T04:39:38.145Z,101354.59
2022-08-05T04:41:11.219Z,101343.97
2022-08-05T04:42:43.147Z,101345.69
2022-08-05T04:44:21.525Z,101338.66
2022-08-05T04:46:01.831Z,101331.63
2022-08-05T04:47:42.736Z,101338.66
2022-08-05T04:49:18.990Z,101339.69
2022-08-05T04:51:01.711Z,101355.75
2022-08-05T04:52:35.707Z,101345.38
2022-08-05T04:54:07.500Z,101352.53
2022-08-05T04:56:14.783Z,101364.03
2022-08-05T04:57:37.286Z,101373.78
2022-08-05T04:59:21.466Z,101373.91
2022-08-05T05:00:55.793Z,101381.13
2022-08-05T05:02:37.084Z,101392.72
2022-08-05T05:04:13.027Z,101399.06
2022-08-05T05:06:35.842Z,101414.28
2022-08-05T05:07:37.052Z,101418.78
2022-08-05T05:09:18.382Z,101417.97
2022-08-05T05:10:56.114Z,101403.03
2022-08-05T05:12:28.264Z,101386.47
2022-08-05T05:14:00.141Z,101368.97
2022-08-05T05:15:57.003Z,101345.38
2022-08-05T05:17:55.531Z,101341.09
2022-08-05T05:19:18.986Z,101358.94
2022-08-05T05:20:51.465Z,101366.88
2022-08-05T05:22:26.333Z,101357.31
2022-08-05T05:24:02.889Z,101360.09
2022-08-05T05:25:41.909Z,101363.63
2022-08-05T05:27:16.021Z,101369.84
2022-08-05T05:28:49.244Z,101376.13
2022-08-05T05:30:29.334Z,101375.38
2022-08-05T05:32:03.690Z,101366.59
2022-08-05T05:33:58.597Z,101367.63
2022-08-05T05:35:34.302Z,101377.41
2022-08-05T05:37:10.014Z,101374.03
2022-08-05T05:38:42.254Z,101381.16
2022-08-05T05:40:17.121Z,101379.44
2022-08-05T05:41:54.352Z,101379.44
2022-08-05T05:43:57.174Z,101380.38
2022-08-05T05:45:19.696Z,101380.38
2022-08-05T05:46:52.026Z,101389.22
2022-08-05T05:48:27.329Z,101392.78
2022-08-05T05:50:01.714Z,101391.00
2022-08-05T05:51:50.446Z,101405.13
2022-08-05T05:53:22.982Z,101403.38
2022-08-05T05:54:55.692Z,101401.69
2022-08-05T05:56:32.764Z,101414.91
2022-08-05T05:58:05.965Z,101423.78
2022-08-05T05:59:40.370Z,101437.03
2022-08-05T06:01:15.179Z,101444.97
2022-08-05T06:02:49.639Z,101450.28
2022-08-05T06:04:23.693Z,101447.63
2022-08-05T06:05:55.762Z,101441.41
2022-08-05T06:07:41.937Z,101436.13
2022-08-05T06:09:17.452Z,101417.72
2022-08-05T06:10:57.442Z,101424.84
2022-08-05T06:12:29.311Z,101421.31
2022-08-05T06:14:02.494Z,101428.66
2022-08-05T06:16:31.610Z,101416.72
2022-08-05T06:17:31.030Z,101412.38
2022-08-05T06:19:05.743Z,101408.91
2022-08-05T06:20:39.400Z,101408.00
2022-08-05T06:22:19.131Z,101408.88
2022-08-05T06:23:50.998Z,101411.44
2022-08-05T06:25:25.305Z,101421.06
2022-08-05T06:28:08.724Z,101428.16
2022-08-05T06:29:42.965Z,101425.50
2022-08-05T06:30:58.472Z,101432.56
2022-08-05T06:32:30.451Z,101438.69
2022-08-05T06:34:07.839Z,101447.41
2022-08-05T06:36:03.497Z,101454.69
2022-08-05T06:37:56.251Z,101451.22
2022-08-05T06:39:26.775Z,101458.50
2022-08-05T06:40:59.560Z,101458.53
2022-08-05T06:42:31.641Z,101468.16
2022-08-05T06:44:03.641Z,101466.38
2022-08-05T06:45:44.634Z,101475.13
2022-08-05T06:48:11.758Z,101473.38
2022-08-05T06:49:59.830Z,101483.16
2022-08-05T06:51:21.826Z,101487.50
2022-08-05T06:53:03.717Z,101490.97
2022-08-05T06:54:43.205Z,101498.00
2022-08-05T06:56:26.535Z,101497.91
2022-08-05T06:58:19.815Z,101485.56
2022-08-05T06:59:57.913Z,101487.34
2022-08-05T07:01:32.776Z,101489.03
2022-08-05T07:03:04.829Z,101489.97
2022-08-05T07:04:41.566Z,101487.25
2022-08-05T07:06:15.303Z,101479.31
2022-08-05T07:07:49.091Z,101486.41
2022-08-05T07:09:21.042Z,101488.22
2022-08-05T07:10:57.092Z,101482.00
2022-08-05T07:12:49.069Z,101481.97
2022-08-05T07:14:39.823Z,101486.31
2022-08-05T07:17:59.044Z,101487.16
2022-08-05T07:18:27.283Z,101487.94
2022-08-05T07:20:32.310Z,101491.66
2022-08-05T07:22:00.000Z,101499.47
2022-08-05T07:23:32.772Z,101504.75
2022-08-05T07:25:23.752Z,101505.56
2022-08-05T07:26:57.410Z,101507.41
2022-08-05T07:28:29.385Z,101510.94
2022-08-05T07:30:27.919Z,101503.94
2022-08-05T07:31:56.407Z,101507.31
2022-08-05T07:33:37.168Z,101507.25
2022-08-05T07:36:03.458Z,101509.75
2022-08-05T07:37:02.213Z,101513.13
2022-08-05T07:38:43.684Z,101514.78
2022-08-05T07:40:32.048Z,101522.69
2022-08-05T07:42:13.039Z,101537.63
2022-08-05T07:43:46.894Z,101530.44
2022-08-05T07:45:19.220Z,101534.75
2022-08-05T07:47:11.111Z,101540.03
2022-08-05T07:49:02.529Z,101541.88
2022-08-05T07:50:36.772Z,101540.13
2022-08-05T07:52:11.608Z,101544.56
2022-08-05T07:53:50.632Z,101549.00
2022-08-05T07:56:04.780Z,101547.28
2022-08-05T07:57:41.524Z,101548.97
2022-08-05T07:59:08.603Z,101550.75
2022-08-05T08:00:40.720Z,101557.72
2022-08-05T08:02:16.533Z,101564.66
2022-08-05T08:03:49.093Z,101562.94
2022-08-05T08:05:26.821Z,101569.91
2022-08-05T08:07:01.030Z,101562.75
2022-08-05T08:08:37.460Z,101566.13
2022-08-05T08:10:10.461Z,101565.09
2022-08-05T08:11:47.440Z,101567.69
2022-08-05T08:13:22.169Z,101571.13
2022-08-05T08:15:03.571Z,101570.91
2022-08-05T08:16:51.080Z,101569.81
2022-08-05T08:18:25.195Z,101579.19
2022-08-05T08:20:21.143Z,101574.59
2022-08-05T08:21:49.074Z,101577.81
2022-08-05T08:24:02.264Z,101567.00
2022-08-05T08:25:15.707Z,101572.22
2022-08-05T08:26:50.924Z,101574.97
2022-08-05T08:28:36.205Z,101572.25
2022-08-05T08:30:30.027Z,101564.97
2022-08-05T08:32:04.064Z,101557.44
2022-08-05T08:33:38.266Z,101564.31
2022-08-05T08:35:13.506Z,101566.88
2022-08-05T08:36:49.047Z,101561.34
2022-08-05T08:38:35.362Z,101561.94
2022-08-05T08:40:08.547Z,101567.69
2022-08-05T08:41:50.873Z,101567.59
2022-08-05T08:45:20.945Z,101572.88
2022-08-05T08:45:27.150Z,101563.91
2022-08-05T08:47:03.319Z,101576.06
2022-08-05T08:49:07.511Z,101578.44
2022-08-05T08:51:03.563Z,101584.44
2022-08-05T08:52:39.837Z,101586.19
2022-08-05T08:54:13.796Z,101587.84
2022-08-05T08:56:02.948Z,101592.13
2022-08-05T08:57:42.300Z,101592.81
2022-08-05T08:59:33.396Z,101593.63
2022-08-05T09:01:07.489Z,101600.56
2022-08-05T09:02:45.045Z,101613.59
2022-08-05T09:04:19.890Z,101619.78
2022-08-05T09:06:07.590Z,101616.34
2022-08-05T09:07:57.070Z,101626.91
2022-08-05T09:09:34.830Z,101632.22
2022-08-05T09:11:08.593Z,101626.16
2022-08-05T09:12:44.605Z,101637.59
2022-08-05T09:14:58.881Z,101628.81
2022-08-05T09:16:17.157Z,101642.13
2022-08-05T09:17:50.070Z,101634.94
2022-08-05T09:19:27.888Z,101639.34
2022-08-05T09:21:11.508Z,101643.66
2022-08-05T09:23:05.578Z,101641.06
2022-08-05T09:24:40.072Z,101645.38
2022-08-05T09:26:20.780Z,101645.34
2022-08-05T09:28:04.857Z,101649.50
2022-08-05T09:29:48.035Z,101656.31
2022-08-05T09:31:43.562Z,101652.63
2022-08-05T09:33:15.278Z,101654.69
2022-08-05T09:34:53.813Z,101651.59
2022-08-05T09:36:38.885Z,101662.97
2022-08-05T09:38:27.525Z,101656.47
2022-08-05T09:40:01.511Z,101659.75
2022-08-05T09:41:38.294Z,101663.09
2022-08-05T09:43:41.920Z,101656.69
2022-08-05T09:45:17.791Z,101657.50
2022-08-05T09:47:20.638Z,101654.84
2022-08-05T09:49:06.617Z,101664.44
2022-08-05T09:50:44.579Z,101664.06
2022-08-05T09:52:27.656Z,101660.47
2022-08-05T09:54:00.543Z,101662.09
2022-08-05T09:55:56.860Z,101658.94
2022-08-05T09:57:35.401Z,101662.16
2022-08-05T09:59:17.060Z,101662.75
2022-08-05T10:01:00.601Z,101658.91
2022-08-05T10:02:38.666Z,101653.44
2022-08-05T10:04:13.833Z,101663.78
2022-08-05T10:06:07.536Z,101669.16
2022-08-05T10:08:35.081Z,101663.09
2022-08-05T10:10:14.062Z,101670.56
2022-08-05T10:11:48.229Z,101665.28
2022-08-05T10:13:45.779Z,101669.94
2022-08-05T10:15:27.789Z,101678.59
2022-08-05T10:17:37.641Z,101676.91
2022-08-05T10:19:09.180Z,101669.84
2022-08-05T10:20:44.059Z,101681.44
2022-08-05T10:22:30.040Z,101681.66
2022-08-05T10:24:07.549Z,101681.84
2022-08-05T10:25:43.047Z,101692.50
2022-08-05T10:27:16.761Z,101682.03
2022-08-05T10:28:48.853Z,101677.81
2022-08-05T10:31:20.240Z,101681.28
2022-08-05T10:32:53.220Z,101682.34
2022-08-05T10:34:10.398Z,101689.34
2022-08-05T10:35:44.234Z,101692.00
2022-08-05T10:37:16.799Z,101685.88
2022-08-05T10:38:50.180Z,101694.66
2022-08-05T10:40:46.222Z,101690.03
2022-08-05T10:42:34.269Z,101692.38
2022-08-05T10:44:13.255Z,101688.66
2022-08-05T10:46:06.699Z,101696.47
2022-08-05T10:47:46.999Z,101688.28
2022-08-05T10:49:48.837Z,101688.88
2022-08-05T10:51:28.336Z,101691.72
2022-08-05T10:53:01.206Z,101693.91
2022-08-05T10:55:03.231Z,101690.03
2022-08-05T10:56:49.479Z,101689.34
2022-08-05T10:58:47.895Z,101695.00
2022-08-05T11:00:27.470Z,101692.78
2022-08-05T11:02:14.803Z,101692.16
2022-08-05T11:04:17.903Z,101684.06
2022-08-05T11:06:16.252Z,101691.03
2022-08-05T11:08:04.675Z,101681.94
2022-08-05T11:09:49.942Z,101688.31
2022-08-05T11:11:44.831Z,101673.97
2022-08-05T11:13:57.991Z,101676.66
2022-08-05T11:16:01.391Z,101681.78
2022-08-05T11:18:07.685Z,101680.66
2022-08-05T11:20:11.215Z,101686.50
2022-08-05T11:21:48.831Z,101682.69
2022-08-05T11:24:02.644Z,101681.09
2022-08-05T11:26:04.382Z,101673.78
2022-08-05T11:27:37.050Z,101679.22
2022-08-05T11:29:35.415Z,101674.72
2022-08-05T11:31:09.111Z,101682.22
2022-08-05T11:32:41.758Z,101682.72
2022-08-05T11:34:37.012Z,101698.47
2022-08-05T11:36:10.416Z,101696.44
2022-08-05T11:38:29.409Z,101700.88
2022-08-05T11:40:00.448Z,101705.53
2022-08-05T11:42:01.507Z,101710.72
2022-08-05T11:44:00.989Z,101703.94
2022-08-05T11:46:15.551Z,101705.47
2022-08-05T11:47:18.648Z,101708.56
2022-08-05T11:48:55.028Z,101716.22
2022-08-05T11:50:27.760Z,101718.09
2022-08-05T11:51:59.787Z,101716.66
2022-08-05T11:53:33.674Z,101719.75
2022-08-05T11:55:13.358Z,101716.16
2022-08-05T11:56:52.948Z,101713.47
2022-08-05T11:58:52.948Z,101719.38
2022-08-05T12:00:30.246Z,101726.38
2022-08-05T12:02:06.844Z,101724.63
2022-08-05T12:03:57.382Z,101724.63
2022-08-05T12:05:36.403Z,101730.06
2022-08-05T12:07:14.102Z,101730.84
2022-08-05T12:08:53.404Z,101731.84
2022-08-05T12:10:43.018Z,101729.03
2022-08-05T12:12:23.008Z,101729.44
2022-08-05T12:14:04.270Z,101725.38
2022-08-05T12:15:38.246Z,101720.22
2022-08-05T12:18:03.003Z,101721.50
2022-08-05T12:19:08.771Z,101727.06
2022-08-05T12:20:41.718Z,101726.38
2022-08-05T12:22:19.993Z,101729.22
2022-08-05T12:24:04.757Z,101729.91
2022-08-05T12:25:56.506Z,101729.97
2022-08-05T12:27:33.237Z,101733.59
2022-08-05T12:29:09.641Z,101738.78
2022-08-05T12:30:49.936Z,101745.09
2022-08-05T12:32:21.887Z,101747.59
2022-08-05T12:33:57.494Z,101746.59
2022-08-05T12:35:38.574Z,101745.38
2022-08-05T12:37:26.679Z,101745.78
2022-08-05T12:39:05.453Z,101740.66
2022-08-05T12:40:37.504Z,101741.44
2022-08-05T12:42:22.001Z,101739.38
2022-08-05T12:44:02.128Z,101744.72
2022-08-05T12:45:42.594Z,101747.66
2022-08-05T12:47:28.588Z,101755.09
2022-08-05T12:49:13.772Z,101762.03
2022-08-05T12:52:09.897Z,101753.13
2022-08-05T12:53:16.660Z,101761.56
2022-08-05T12:54:52.112Z,101764.69
2022-08-05T12:56:35.411Z,101762.59
2022-08-05T12:58:48.268Z,101764.84
2022-08-05T13:01:57.535Z,101771.09
2022-08-05T13:02:07.487Z,101769.69
2022-08-05T13:03:42.049Z,101777.75
2022-08-05T13:05:15.418Z,101782.75
2022-08-05T13:06:51.891Z,101778.25
2022-08-05T13:08:23.972Z,101791.38
2022-08-05T13:09:59.113Z,101786.47
2022-08-05T13:12:01.829Z,101795.63
2022-08-05T13:14:05.668Z,101789.16
2022-08-05T13:15:24.190Z,101793.97
2022-08-05T13:16:57.886Z,101798.28
2022-08-05T13:18:39.743Z,101785.50
2022-08-05T13:20:20.350Z,101790.88
2022-08-05T13:21:56.722Z,101798.56
2022-08-05T13:23:28.742Z,101792.78
2022-08-05T13:25:18.788Z,101799.84
2022-08-05T13:26:56.157Z,101803.31
2022-08-05T13:28:32.380Z,101797.97
2022-08-05T13:30:35.882Z,101802.66
2022-08-05T13:32:03.912Z,101803.22
2022-08-05T13:34:21.749Z,101784.91
2022-08-05T13:35:43.365Z,101806.69
2022-08-05T13:37:27.221Z,101796.09
2022-08-05T13:39:08.388Z,101791.00
2022-08-05T13:40:56.787Z,101790.34
2022-08-05T13:42:28.630Z,101789.63
2022-08-05T13:44:00.617Z,101794.63
2022-08-05T13:45:43.022Z,101795.16
2022-08-05T13:47:34.687Z,101799.75
2022-08-05T13:49:11.879Z,101805.09
2022-08-05T13:50:44.022Z,101797.75
2022-08-05T13:52:18.470Z,101804.31
2022-08-05T13:53:50.268Z,101806.47
2022-08-05T13:55:40.778Z,101808.47
2022-08-05T13:57:14.977Z,101814.28
2022-08-05T13:58:53.044Z,101804.31
2022-08-05T14:00:26.985Z,101816.25
2022-08-05T14:02:00.802Z,101808.19
2022-08-05T14:03:32.912Z,101803.28
2022-08-05T14:05:11.438Z,101816.88
2022-08-05T14:06:47.554Z,101822.56
2022-08-05T14:08:27.663Z,101822.94
2022-08-05T14:10:08.776Z,101815.56
2022-08-05T14:12:00.391Z,101825.13
2022-08-05T14:13:33.537Z,101823.38
2022-08-05T14:16:04.769Z,101821.88
2022-08-05T14:16:59.073Z,101822.84
2022-08-05T14:18:32.674Z,101836.63
2022-08-05T14:20:07.795Z,101833.84
2022-08-05T14:22:09.901Z,101833.56
2022-08-05T14:23:36.686Z,101835.31
2022-08-05T14:25:19.121Z,101842.75
2022-08-05T14:27:15.683Z,101843.09
2022-08-05T14:28:52.328Z,101844.22
2022-08-05T14:30:27.874Z,101845.53
2022-08-05T14:32:13.162Z,101849.31
2022-08-05T14:33:59.174Z,101837.84
2022-08-05T14:35:36.916Z,101843.34
2022-08-05T14:37:21.678Z,101845.19
2022-08-05T14:38:57.913Z,101851.00
2022-08-05T14:40:29.834Z,101848.97
2022-08-05T14:42:19.485Z,101847.72
2022-08-05T14:44:01.696Z,101849.38
2022-08-05T14:45:41.797Z,101855.88
2022-08-05T14:47:13.977Z,101848.78
2022-08-05T14:48:49.824Z,101853.66
2022-08-05T14:50:21.965Z,101853.13
2022-08-05T14:51:57.133Z,101856.41
2022-08-05T14:53:30.234Z,101860.25
2022-08-05T14:55:02.129Z,101866.03
2022-08-05T14:56:34.779Z,101860.28
2022-08-05T14:58:11.226Z,101859.56
2022-08-05T14:59:44.378Z,101850.44
2022-08-05T15:01:47.105Z,101853.72
2022-08-05T15:03:12.581Z,101858.78
2022-08-05T15:04:47.743Z,101865.97
2022-08-05T15:06:20.325Z,101863.78
2022-08-05T15:08:17.909Z,101862.22
2022-08-05T15:10:05.462Z,101865.72
2022-08-05T15:11:50.894Z,101871.94
2022-08-05T15:13:28.651Z,101868.59
2022-08-05T15:15:54.268Z,101862.75
2022-08-05T15:17:44.660Z,101867.97
2022-08-05T15:19:03.763Z,101869.84
2022-08-05T15:20:35.931Z,101868.88
2022-08-05T15:22:08.934Z,101865.91
2022-08-05T15:23:40.892Z,101871.56
2022-08-05T15:25:14.318Z,101863.97
2022-08-05T15:26:46.582Z,101860.78
2022-08-05T15:28:22.237Z,101878.72
2022-08-05T15:29:59.805Z,101877.44
2022-08-05T15:31:34.899Z,101877.13
2022-08-05T15:33:07.075Z,101873.91
2022-08-05T15:34:39.482Z,101882.53
2022-08-05T15:36:17.617Z,101875.38
2022-08-05T15:38:34.854Z,101878.44
2022-08-05T15:40:58.277Z,101886.91
2022-08-05T15:41:55.666Z,101884.88
2022-08-05T15:43:30.570Z,101887.47
2022-08-05T15:45:18.972Z,101887.63
2022-08-05T15:47:11.805Z,101887.53
2022-08-05T15:48:53.113Z,101889.13
2022-08-05T15:50:33.036Z,101888.13
2022-08-05T15:52:16.519Z,101886.38
2022-08-05T15:53:52.013Z,101890.06
2022-08-05T15:55:24.469Z,101881.78
2022-08-05T15:56:57.123Z,101885.16
2022-08-05T15:58:29.417Z,101884.78
2022-08-05T16:00:08.896Z,101889.03
2022-08-05T16:01:52.551Z,101883.94
2022-08-05T16:03:27.345Z,101883.25
2022-08-05T16:05:00.530Z,101889.81
2022-08-05T16:06:32.404Z,101895.72
2022-08-05T16:08:04.504Z,101894.28
2022-08-05T16:09:36.699Z,101896.91
2022-08-05T16:11:13.501Z,101897.78
2022-08-05T16:12:46.387Z,101897.69
2022-08-05T16:14:18.661Z,101903.28
2022-08-05T16:15:52.003Z,101899.66
2022-08-05T16:17:24.508Z,101896.19
2022-08-05T16:18:57.471Z,101911.91
2022-08-05T16:20:32.440Z,101899.84
2022-08-05T16:22:05.657Z,101904.66
2022-08-05T16:23:53.595Z,101901.03
2022-08-05T16:25:32.229Z,101902.78
2022-08-05T16:27:07.282Z,101898.69
2022-08-05T16:28:41.407Z,101902.16
2022-08-05T16:30:23.253Z,101908.78
2022-08-05T16:31:58.033Z,101896.69
2022-08-05T16:33:41.641Z,101906.16
2022-08-05T16:35:13.838Z,101908.06
2022-08-05T16:36:48.542Z,101915.00
2022-08-05T16:38:25.229Z,101915.22
2022-08-05T16:40:04.606Z,101924.47
2022-08-05T16:42:13.615Z,101927.47
2022-08-05T16:43:35.125Z,101931.44
2022-08-05T16:46:04.677Z,101927.19
2022-08-05T16:46:59.742Z,101931.66
2022-08-05T16:48:34.065Z,101943.53
2022-08-05T16:50:10.177Z,101937.91
2022-08-05T16:51:51.084Z,101944.50
2022-08-05T16:53:32.117Z,101951.66
2022-08-05T16:55:05.088Z,101949.38
2022-08-05T16:56:37.115Z,101957.72
2022-08-05T16:58:19.663Z,101960.03
2022-08-05T17:00:00.318Z,101963.53
2022-08-05T17:01:54.541Z,101962.00
2022-08-05T17:03:27.940Z,101963.31
2022-08-05T17:04:59.864Z,101964.41
2022-08-05T17:06:32.065Z,101962.03
2022-08-05T17:08:04.149Z,101968.97
2022-08-05T17:09:57.612Z,101968.56
2022-08-05T17:11:31.315Z,101968.94
2022-08-05T17:13:21.340Z,101972.53
2022-08-05T17:15:10.043Z,101976.38
2022-08-05T17:16:47.600Z,101975.00
2022-08-05T17:18:27.744Z,101980.59
2022-08-05T17:20:00.725Z,101972.56
2022-08-05T17:21:35.713Z,101973.78
2022-08-05T17:23:08.697Z,101988.53
2022-08-05T17:25:00.812Z,101978.94
2022-08-05T17:26:32.881Z,101988.53
2022-08-05T17:28:09.807Z,101988.81
2022-08-05T17:29:41.908Z,101989.47
2022-08-05T17:31:57.033Z,101991.00
2022-08-05T17:33:21.120Z,101997.69
2022-08-05T17:34:54.203Z,101995.22
2022-08-05T17:36:33.938Z,101989.66
2022-08-05T17:38:08.296Z,101994.28
2022-08-05T17:39:40.343Z,101996.69
2022-08-05T17:42:16.770Z,101996.97
2022-08-05T17:43:10.084Z,101999.63
2022-08-05T17:44:42.205Z,101997.09
2022-08-05T17:46:23.792Z,102007.16
2022-08-05T17:47:56.336Z,102003.00
2022-08-05T17:49:28.294Z,102007.47
2022-08-05T17:51:21.815Z,102014.91
2022-08-05T17:52:54.988Z,102017.16
2022-08-05T17:54:26.973Z,102008.34
2022-08-05T17:55:59.909Z,102023.72
2022-08-05T17:57:34.738Z,102021.25
2022-08-05T17:59:09.674Z,102021.50
2022-08-05T18:00:47.161Z,102021.81
2022-08-05T18:02:20.186Z,102031.81
2022-08-05T18:04:03.531Z,102025.06
2022-08-05T18:05:39.203Z,102038.00
2022-08-05T18:07:12.588Z,102037.13
2022-08-05T18:08:52.612Z,102046.41
2022-08-05T18:10:27.299Z,102044.66
2022-08-05T18:12:07.234Z,102053.72
2022-08-05T18:13:44.356Z,102043.16
2022-08-05T18:15:18.397Z,102057.53
2022-08-05T18:16:51.868Z,102065.59
2022-08-05T18:18:26.928Z,102062.06
2022-08-05T18:19:59.216Z,102069.38
2022-08-05T18:22:07.213Z,102070.44
2022-08-05T18:23:25.077Z,102076.81
2022-08-05T18:25:02.206Z,102073.72
2022-08-05T18:26:34.099Z,102073.03
2022-08-05T18:28:07.521Z,102083.94
2022-08-05T18:29:41.567Z,102078.66
2022-08-05T18:31:13.518Z,102085.00
2022-08-05T18:32:53.437Z,102082.50
2022-08-05T18:34:41.327Z,102091.53
2022-08-05T18:36:15.442Z,102087.34
2022-08-05T18:37:47.680Z,102089.19
2022-08-05T18:40:29.859Z,102088.59
2022-08-05T18:41:56.161Z,102097.72
2022-08-05T18:43:09.076Z,102102.38
2022-08-05T18:44:51.433Z,102098.00
2022-08-05T18:46:29.260Z,102095.63
2022-08-05T18:48:01.225Z,102092.94
2022-08-05T18:49:58.286Z,102098.31
2022-08-05T18:52:06.651Z,102101.91
2022-08-05T18:53:42.999Z,102097.66
2022-08-05T18:55:22.228Z,102097.81
2022-08-05T18:56:57.378Z,102104.00
2022-08-05T18:58:29.280Z,102105.03
2022-08-05T19:00:04.253Z,102110.31
2022-08-05T19:01:48.101Z,102104.31
2022-08-05T19:03:52.782Z,102112.31
2022-08-05T19:06:13.416Z,102114.16
2022-08-05T19:07:15.819Z,102120.56
2022-08-05T19:08:47.832Z,102128.59
2022-08-05T19:10:28.047Z,102130.44
2022-08-05T19:12:03.764Z,102137.81
2022-08-05T19:13:38.648Z,102135.41